createdAt,value
2023-04-29T00:00:14.300Z,9.50
2023-04-29T00:02:42.550Z,17.50
2023-04-29T00:05:10.484Z,12.00
2023-04-29T00:07:39.362Z,7.50
2023-04-29T00:10:06.977Z,14.00
2023-04-29T00:12:34.643Z,14.00
2023-04-29T00:15:03.514Z,9.25
2023-04-29T00:17:31.274Z,14.25
2023-04-29T00:19:58.952Z,14.00
2023-04-29T00:22:26.582Z,11.25
2023-04-29T00:24:54.373Z,15.00
2023-04-29T00:27:22.375Z,10.25
2023-04-29T00:29:50.194Z,18.75
2023-04-29T00:32:18.032Z,12.25
2023-04-29T00:34:45.646Z,15.50
2023-04-29T00:37:13.291Z,19.25
2023-04-29T00:39:41.223Z,14.50
2023-04-29T00:42:08.833Z,14.75
2023-04-29T00:44:36.836Z,20.75
2023-04-29T00:47:05.015Z,18.00
2023-04-29T00:49:32.566Z,18.75
2023-04-29T00:52:00.936Z,16.75
2023-04-29T00:54:28.577Z,15.75
2023-04-29T00:56:56.426Z,22.50
2023-04-29T00:59:32.114Z,14.00
2023-04-29T01:02:00.239Z,14.25
2023-04-29T01:04:28.681Z,21.00
2023-04-29T01:06:57.375Z,21.75
2023-04-29T01:09:25.101Z,10.50
2023-04-29T01:11:52.666Z,18.75
2023-04-29T01:14:20.584Z,20.00
2023-04-29T01:16:49.306Z,21.00
2023-04-29T01:19:16.928Z,17.75
2023-04-29T01:21:44.530Z,18.50
2023-04-29T01:24:12.107Z,17.50
2023-04-29T01:26:39.709Z,18.75
2023-04-29T01:29:07.650Z,14.25
2023-04-29T01:31:35.383Z,22.50
2023-04-29T01:34:03.039Z,16.75
2023-04-29T01:36:31.510Z,20.00
2023-04-29T01:38:59.402Z,22.50
2023-04-29T01:41:27.381Z,21.25
2023-04-29T01:43:55.312Z,19.75
2023-04-29T01:46:22.939Z,22.00
2023-04-29T01:48:50.513Z,20.25
2023-04-29T01:51:18.111Z,19.50
2023-04-29T01:53:46.081Z,27.75
2023-04-29T01:56:13.751Z,21.00
2023-04-29T01:58:41.514Z,28.75
2023-04-29T02:01:29.084Z,10.25
2023-04-29T02:03:57.224Z,18.25
2023-04-29T02:06:24.936Z,19.00
2023-04-29T02:08:52.460Z,23.25
2023-04-29T02:11:20.068Z,20.75
2023-04-29T02:13:47.649Z,15.00
2023-04-29T02:16:15.466Z,18.00
2023-04-29T02:18:43.976Z,17.50
2023-04-29T02:21:12.342Z,19.00
2023-04-29T02:23:39.984Z,18.50
2023-04-29T02:26:09.463Z,13.25
2023-04-29T02:28:37.092Z,20.50
2023-04-29T02:31:04.860Z,16.50
2023-04-29T02:33:33.041Z,27.00
2023-04-29T02:36:00.875Z,4.00
2023-04-29T02:38:28.586Z,19.75
2023-04-29T02:40:56.835Z,22.75
2023-04-29T02:43:24.431Z,11.00
2023-04-29T02:45:52.260Z,13.00
2023-04-29T02:48:20.004Z,22.25
2023-04-29T02:50:47.573Z,23.25
2023-04-29T02:53:15.509Z,23.00
2023-04-29T02:55:43.452Z,20.00
2023-04-29T02:58:11.001Z,29.00
2023-04-29T03:00:38.547Z,25.00
2023-04-29T03:03:06.547Z,17.00
2023-04-29T03:05:35.299Z,21.25
2023-04-29T03:08:04.825Z,25.75
2023-04-29T03:10:32.440Z,21.25
2023-04-29T03:13:00.025Z,18.75
2023-04-29T03:15:27.576Z,27.50
2023-04-29T03:17:56.347Z,20.75
2023-04-29T03:20:24.745Z,18.25
2023-04-29T03:22:52.301Z,29.00
2023-04-29T03:25:20.266Z,23.50
2023-04-29T03:27:47.892Z,19.00
2023-04-29T03:30:15.846Z,24.25
2023-04-29T03:32:43.462Z,16.00
2023-04-29T03:35:14.163Z,19.75
2023-04-29T03:37:44.611Z,12.75
2023-04-29T03:40:12.334Z,17.25
2023-04-29T03:42:40.275Z,23.75
2023-04-29T03:45:07.874Z,16.50
2023-04-29T03:47:36.194Z,21.50
2023-04-29T03:50:04.522Z,22.50
2023-04-29T03:52:32.162Z,13.75
2023-04-29T03:55:00.075Z,21.75
2023-04-29T03:57:27.940Z,19.00
2023-04-29T03:59:55.693Z,19.75
2023-04-29T04:02:23.361Z,14.25
2023-04-29T04:04:51.159Z,16.50
2023-04-29T04:07:19.274Z,19.00
2023-04-29T04:09:48.203Z,18.00
2023-04-29T04:12:15.778Z,19.00
2023-04-29T04:14:43.492Z,12.00
2023-04-29T04:17:11.856Z,17.25
2023-04-29T04:19:39.780Z,9.75
2023-04-29T04:22:07.874Z,14.00
2023-04-29T04:24:35.425Z,14.00
2023-04-29T04:27:02.988Z,9.25
2023-04-29T04:29:30.697Z,12.75
2023-04-29T04:31:58.853Z,14.75
2023-04-29T04:34:26.534Z,18.50
2023-04-29T04:36:54.125Z,9.75
2023-04-29T04:39:21.700Z,12.00
2023-04-29T04:41:49.226Z,11.50
2023-04-29T04:44:17.075Z,22.00
2023-04-29T04:46:44.642Z,21.75
2023-04-29T04:49:12.215Z,17.50
2023-04-29T04:51:39.838Z,14.00
2023-04-29T04:54:07.715Z,8.00
2023-04-29T04:56:38.029Z,18.00
2023-04-29T04:59:05.651Z,14.75
2023-04-29T05:01:33.267Z,20.25
2023-04-29T05:04:02.933Z,18.75
2023-04-29T05:06:30.592Z,17.00
2023-04-29T05:08:58.533Z,17.00
2023-04-29T05:11:26.137Z,16.75
2023-04-29T05:13:53.734Z,13.00
2023-04-29T05:16:21.611Z,16.50
2023-04-29T05:18:49.222Z,6.25
2023-04-29T05:21:17.787Z,23.00
2023-04-29T05:23:45.590Z,15.00
2023-04-29T05:26:13.179Z,18.25
2023-04-29T05:28:40.958Z,9.00
2023-04-29T05:31:08.573Z,11.00
2023-04-29T05:33:36.587Z,12.00
2023-04-29T05:36:04.478Z,15.75
2023-04-29T05:38:32.401Z,18.50
2023-04-29T05:41:00.130Z,14.50
2023-04-29T05:43:27.979Z,18.25
2023-04-29T05:45:56.371Z,19.00
2023-04-29T05:48:24.894Z,13.50
2023-04-29T05:50:52.507Z,12.50
2023-04-29T05:53:20.125Z,15.25
2023-04-29T05:55:49.184Z,14.00
2023-04-29T05:58:18.315Z,30.25
2023-04-29T06:00:49.471Z,13.75
2023-04-29T06:03:17.268Z,21.00
2023-04-29T06:05:45.649Z,20.00
2023-04-29T06:08:13.470Z,4.50
2023-04-29T06:10:41.650Z,24.25
2023-04-29T06:13:09.381Z,19.50
2023-04-29T06:15:37.135Z,14.50
2023-04-29T06:18:04.851Z,15.75
2023-04-29T06:20:32.520Z,19.75
2023-04-29T06:23:00.793Z,18.75
2023-04-29T06:25:28.905Z,23.75
2023-04-29T06:27:56.795Z,20.00
2023-04-29T06:30:24.419Z,13.50
2023-04-29T06:32:52.113Z,18.75
2023-04-29T06:35:20.109Z,26.00
2023-04-29T06:37:47.968Z,23.00
2023-04-29T06:40:15.587Z,21.25
2023-04-29T06:42:43.905Z,18.00
2023-04-29T06:45:11.787Z,19.50
2023-04-29T06:47:39.534Z,15.75
2023-04-29T06:50:07.230Z,19.75
2023-04-29T06:52:34.839Z,23.75
2023-04-29T06:55:02.440Z,17.00
2023-04-29T06:57:30.082Z,11.75
2023-04-29T06:59:58.102Z,22.50
2023-04-29T07:02:26.077Z,17.50
2023-04-29T07:04:54.530Z,17.00
2023-04-29T07:07:22.605Z,21.75
2023-04-29T07:09:52.360Z,11.50
2023-04-29T07:12:20.324Z,21.25
2023-04-29T07:14:48.300Z,26.75
2023-04-29T07:17:15.931Z,19.50
2023-04-29T07:19:43.590Z,23.00
2023-04-29T07:22:11.180Z,20.25
2023-04-29T07:24:39.192Z,21.50
2023-04-29T07:27:07.289Z,18.50
2023-04-29T07:29:34.891Z,16.00
2023-04-29T07:32:02.589Z,19.50
2023-04-29T07:34:30.231Z,14.00
2023-04-29T07:36:57.989Z,21.50
2023-04-29T07:39:25.894Z,17.50
2023-04-29T07:41:53.621Z,14.00
2023-04-29T07:44:22.023Z,25.00
2023-04-29T07:46:49.683Z,22.00
2023-04-29T07:49:17.707Z,21.00
2023-04-29T07:51:46.734Z,19.50
2023-04-29T07:54:14.384Z,19.00
2023-04-29T07:56:42.209Z,20.00
2023-04-29T07:59:09.871Z,20.50
2023-04-29T08:01:37.887Z,17.50
2023-04-29T08:04:06.059Z,19.00
2023-04-29T08:06:34.029Z,17.75
2023-04-29T08:09:03.123Z,16.00
2023-04-29T08:11:31.141Z,12.75
2023-04-29T08:14:00.448Z,13.25
2023-04-29T08:16:28.282Z,18.50
2023-04-29T08:18:56.410Z,23.50
2023-04-29T08:21:24.139Z,21.50
2023-04-29T08:23:51.961Z,19.25
2023-04-29T08:26:20.021Z,22.00
2023-04-29T08:28:48.113Z,27.25
2023-04-29T08:31:15.992Z,17.25
2023-04-29T08:33:43.812Z,22.00
2023-04-29T08:36:11.941Z,22.50
2023-04-29T08:38:40.046Z,22.75
2023-04-29T08:41:08.682Z,17.00
2023-04-29T08:43:36.875Z,23.50
2023-04-29T08:46:04.859Z,25.00
2023-04-29T08:48:32.736Z,26.50
2023-04-29T08:51:02.897Z,29.00
2023-04-29T08:53:31.292Z,24.75
2023-04-29T08:55:58.995Z,31.50
2023-04-29T08:58:26.760Z,35.00
2023-04-29T09:00:54.684Z,38.25
2023-04-29T09:03:23.085Z,33.25
2023-04-29T09:05:51.021Z,29.00
2023-04-29T09:08:18.759Z,38.75
2023-04-29T09:10:46.487Z,36.75
2023-04-29T09:13:14.429Z,21.00
2023-04-29T09:15:43.226Z,29.25
2023-04-29T09:18:10.992Z,26.25
2023-04-29T09:20:38.736Z,35.80
2023-04-29T09:23:06.563Z,28.00
2023-04-29T09:25:35.165Z,35.50
2023-04-29T09:28:03.099Z,36.25
2023-04-29T09:30:31.358Z,31.00
2023-04-29T09:32:59.274Z,28.50
2023-04-29T09:35:27.220Z,25.00
2023-04-29T09:37:55.286Z,25.00
2023-04-29T09:40:23.777Z,33.25
2023-04-29T09:42:51.584Z,28.75
2023-04-29T09:45:19.408Z,27.50
2023-04-29T09:47:47.732Z,33.00
2023-04-29T09:50:16.621Z,30.75
2023-04-29T09:52:45.112Z,36.25
2023-04-29T09:55:15.713Z,20.50
2023-04-29T09:57:45.159Z,29.25
2023-04-29T10:00:13.585Z,28.00
2023-04-29T10:02:41.874Z,26.00
2023-04-29T10:05:10.557Z,35.00
2023-04-29T10:07:38.413Z,29.50
2023-04-29T10:10:06.636Z,30.00
2023-04-29T10:12:34.455Z,25.00
2023-04-29T10:15:02.137Z,20.75
2023-04-29T10:17:30.477Z,23.50
2023-04-29T10:19:58.850Z,27.25
2023-04-29T10:22:27.119Z,23.75
2023-04-29T10:24:55.271Z,29.50
2023-04-29T10:27:24.888Z,19.75
2023-04-29T10:29:53.734Z,29.50
2023-04-29T10:32:21.456Z,21.75
2023-04-29T10:34:49.700Z,28.25
2023-04-29T10:37:17.821Z,30.00
2023-04-29T10:39:45.793Z,25.00
2023-04-29T10:42:14.242Z,21.50
2023-04-29T10:44:42.138Z,29.00
2023-04-29T10:47:10.363Z,24.75
2023-04-29T10:49:38.134Z,24.25
2023-04-29T10:52:06.010Z,25.00
2023-04-29T10:54:34.689Z,23.75
2023-04-29T10:57:02.519Z,33.00
2023-04-29T10:59:30.353Z,36.25
2023-04-29T11:01:58.235Z,31.25
2023-04-29T11:04:26.072Z,31.25
2023-04-29T11:06:54.267Z,23.00
2023-04-29T11:09:23.848Z,28.75
2023-04-29T11:11:54.263Z,16.50
2023-04-29T11:14:22.321Z,26.00
2023-04-29T11:16:50.624Z,25.00
2023-04-29T11:19:19.289Z,25.00
2023-04-29T11:21:47.558Z,25.00
2023-04-29T11:24:17.684Z,26.25
2023-04-29T11:26:46.638Z,24.25
2023-04-29T11:29:14.533Z,28.50
2023-04-29T11:31:42.615Z,24.00
2023-04-29T11:34:10.729Z,28.75
2023-04-29T11:36:38.575Z,22.25
2023-04-29T11:39:06.414Z,24.50
2023-04-29T11:41:35.967Z,29.00
2023-04-29T11:44:05.562Z,25.25
2023-04-29T11:46:33.834Z,28.75
2023-04-29T11:49:01.941Z,20.00
2023-04-29T11:51:29.939Z,27.75
2023-04-29T11:53:58.180Z,21.25
2023-04-29T11:56:27.272Z,16.00
2023-04-29T11:58:55.268Z,23.50
2023-04-29T12:01:23.320Z,28.00
2023-04-29T12:03:51.460Z,22.75
2023-04-29T12:06:19.584Z,30.00
2023-04-29T12:08:47.568Z,27.50
2023-04-29T12:11:15.848Z,19.00
2023-04-29T12:13:43.620Z,24.50
2023-04-29T12:16:11.800Z,18.50
2023-04-29T12:18:39.727Z,19.00
2023-04-29T12:21:07.787Z,29.00
2023-04-29T12:23:35.976Z,24.00
2023-04-29T12:26:03.780Z,29.50
2023-04-29T12:28:31.996Z,18.75
2023-04-29T12:30:59.843Z,22.50
2023-04-29T12:33:28.453Z,18.25
2023-04-29T12:35:57.127Z,21.00
2023-04-29T12:38:27.330Z,23.25
2023-04-29T12:40:55.122Z,22.50
2023-04-29T12:43:23.142Z,26.50
2023-04-29T12:45:51.387Z,22.25
2023-04-29T12:48:26.733Z,19.25
2023-04-29T12:50:58.834Z,24.75
2023-04-29T12:53:26.529Z,19.00
2023-04-29T12:55:54.562Z,27.25
2023-04-29T12:58:23.071Z,18.25
2023-04-29T13:00:51.042Z,20.50
2023-04-29T13:03:22.009Z,24.25
2023-04-29T13:05:52.801Z,18.75
2023-04-29T13:08:20.591Z,25.25
2023-04-29T13:10:48.425Z,26.25
2023-04-29T13:13:16.493Z,21.50
2023-04-29T13:15:44.346Z,23.50
2023-04-29T13:18:12.040Z,20.00
2023-04-29T13:20:42.024Z,20.50
2023-04-29T13:23:10.974Z,24.00
2023-04-29T13:25:38.772Z,22.50
2023-04-29T13:28:07.880Z,25.25
2023-04-29T13:30:36.129Z,26.00
2023-04-29T13:33:11.778Z,21.25
2023-04-29T13:35:42.129Z,13.00
2023-04-29T13:38:10.046Z,25.25
2023-04-29T13:40:40.662Z,21.75
2023-04-29T13:43:15.912Z,20.75
2023-04-29T13:45:52.823Z,19.00
2023-04-29T13:54:01.652Z,25.50
2023-04-29T14:01:44.091Z,21.00
2023-04-29T14:04:03.178Z,22.50
2023-04-29T14:06:32.793Z,20.50
2023-04-29T14:09:03.577Z,19.25
2023-04-29T14:11:36.806Z,18.50
2023-04-29T14:14:05.236Z,16.50
2023-04-29T14:16:33.612Z,23.50
2023-04-29T14:19:03.864Z,9.75
2023-04-29T14:21:33.543Z,27.00
2023-04-29T14:24:03.976Z,19.50
2023-04-29T14:26:32.377Z,27.50
2023-04-29T14:29:00.681Z,25.25
2023-04-29T14:31:29.638Z,24.75
2023-04-29T14:33:57.537Z,23.50
2023-04-29T14:36:25.282Z,22.50
2023-04-29T14:38:53.635Z,19.00
2023-04-29T14:41:22.369Z,23.25
2023-04-29T14:43:50.532Z,20.75
2023-04-29T14:46:18.659Z,20.50
2023-04-29T14:48:46.468Z,24.75
2023-04-29T14:51:14.616Z,22.50
2023-04-29T14:53:43.345Z,27.50
2023-04-29T14:56:11.277Z,20.25
2023-04-29T14:58:39.096Z,21.75
2023-04-29T15:01:06.998Z,20.25
2023-04-29T15:03:43.629Z,30.50
2023-04-29T15:06:12.682Z,25.00
2023-04-29T15:08:40.586Z,22.75
2023-04-29T15:11:08.395Z,29.50
2023-04-29T15:13:36.685Z,29.00
2023-04-29T15:16:04.906Z,22.50
2023-04-29T15:18:33.009Z,29.00
2023-04-29T15:21:01.160Z,21.50
2023-04-29T15:23:28.968Z,20.75
2023-04-29T15:25:57.188Z,22.50
2023-04-29T15:28:26.214Z,20.50
2023-04-29T15:30:54.401Z,18.75
2023-04-29T15:33:22.262Z,21.75
2023-04-29T15:35:50.107Z,20.00
2023-04-29T15:38:18.585Z,21.50
2023-04-29T15:40:46.631Z,29.75
2023-04-29T15:43:14.911Z,21.75
2023-04-29T15:45:42.733Z,14.50
2023-04-29T15:48:10.957Z,24.25
2023-04-29T15:50:39.279Z,23.00
2023-04-29T15:53:07.307Z,23.25
2023-04-29T15:55:36.241Z,19.00
2023-04-29T15:58:04.155Z,19.50
2023-04-29T16:00:32.101Z,27.00
2023-04-29T16:03:00.295Z,17.00
2023-04-29T16:05:28.300Z,19.25
2023-04-29T16:07:56.670Z,19.75
2023-04-29T16:10:24.729Z,17.50
2023-04-29T16:12:52.605Z,23.25
2023-04-29T16:15:20.827Z,20.00
2023-04-29T16:17:48.719Z,26.00
2023-04-29T16:20:17.785Z,18.00
2023-04-29T16:22:45.649Z,19.50
2023-04-29T16:25:13.763Z,20.75
2023-04-29T16:27:42.404Z,20.00
2023-04-29T16:30:10.286Z,14.50
2023-04-29T16:32:38.621Z,22.50
2023-04-29T16:35:06.760Z,24.25
2023-04-29T16:37:34.535Z,22.00
2023-04-29T16:40:02.428Z,18.00
2023-04-29T16:42:30.505Z,17.00
2023-04-29T16:44:58.671Z,15.00
2023-04-29T16:47:26.995Z,15.00
2023-04-29T16:49:55.717Z,18.00
2023-04-29T16:52:24.769Z,20.00
2023-04-29T16:54:52.690Z,15.50
2023-04-29T16:57:21.839Z,19.75
2023-04-29T16:59:49.881Z,21.25
2023-04-29T17:02:17.756Z,20.50
2023-04-29T17:04:46.209Z,16.00
2023-04-29T17:07:14.722Z,19.00
2023-04-29T17:09:42.537Z,15.50
2023-04-29T17:12:10.505Z,20.25
2023-04-29T17:14:40.283Z,18.00
2023-04-29T17:17:09.267Z,17.00
2023-04-29T17:19:37.187Z,19.00
2023-04-29T17:22:05.275Z,17.50
2023-04-29T17:24:33.944Z,16.75
2023-04-29T17:27:02.108Z,19.50
2023-04-29T17:29:30.188Z,10.00
2023-04-29T17:32:00.201Z,18.00
2023-04-29T17:34:30.112Z,19.50
2023-04-29T17:36:58.428Z,21.00
2023-04-29T17:39:26.273Z,17.50
2023-04-29T17:41:54.951Z,13.75
2023-04-29T17:44:23.657Z,16.00
2023-04-29T17:46:51.772Z,18.00
2023-04-29T17:49:19.778Z,17.75
2023-04-29T17:51:47.750Z,20.00
2023-04-29T17:54:15.988Z,18.25
2023-04-29T17:56:43.994Z,20.50
2023-04-29T17:59:12.751Z,16.25
2023-04-29T18:01:40.741Z,19.25
2023-04-29T18:04:08.874Z,16.25
2023-04-29T18:06:36.956Z,9.00
2023-04-29T18:09:04.883Z,17.00
2023-04-29T18:11:33.186Z,14.50
2023-04-29T18:14:01.396Z,16.00
2023-04-29T18:16:29.285Z,16.50
2023-04-29T18:18:57.971Z,20.00
2023-04-29T18:21:25.847Z,24.75
2023-04-29T18:23:53.799Z,22.00
2023-04-29T18:26:22.137Z,18.00
2023-04-29T18:28:50.038Z,20.50
2023-04-29T18:31:18.301Z,26.00
2023-04-29T18:33:46.401Z,20.00
2023-04-29T18:36:15.154Z,18.75
2023-04-29T18:38:43.399Z,25.00
2023-04-29T18:41:12.356Z,21.50
2023-04-29T18:43:40.580Z,24.00
2023-04-29T18:46:08.511Z,22.00
2023-04-29T18:48:38.561Z,22.00
2023-04-29T18:51:07.378Z,25.75
2023-04-29T18:53:35.177Z,9.25
2023-04-29T18:56:04.119Z,21.75
2023-04-29T18:58:31.833Z,19.00
2023-04-29T19:01:00.331Z,16.00
2023-04-29T19:03:28.307Z,15.50
2023-04-29T19:05:56.214Z,18.50
2023-04-29T19:08:24.993Z,21.25
2023-04-29T19:10:53.674Z,23.75
2023-04-29T19:13:22.255Z,20.00
2023-04-29T19:15:52.949Z,17.00
2023-04-29T19:18:22.930Z,16.00
2023-04-29T19:20:51.200Z,18.25
2023-04-29T19:23:19.228Z,23.25
2023-04-29T19:25:47.408Z,18.75
2023-04-29T19:28:15.143Z,17.50
2023-04-29T19:30:43.064Z,14.50
2023-04-29T19:33:11.602Z,22.00
2023-04-29T19:35:39.456Z,20.00
2023-04-29T19:38:07.472Z,14.00
2023-04-29T19:40:35.387Z,24.00
2023-04-29T19:43:03.342Z,21.75
2023-04-29T19:45:31.929Z,17.50
2023-04-29T19:48:02.353Z,15.50
2023-04-29T19:50:30.382Z,12.00
2023-04-29T19:52:58.132Z,16.00
2023-04-29T19:55:26.159Z,15.75
2023-04-29T19:57:54.604Z,17.25
2023-04-29T20:00:22.704Z,12.25
2023-04-29T20:02:52.680Z,19.25
2023-04-29T20:05:21.133Z,20.00
2023-04-29T20:07:50.034Z,19.00
2023-04-29T20:10:18.386Z,16.25
2023-04-29T20:12:46.927Z,15.00
2023-04-29T20:15:15.003Z,13.75
2023-04-29T20:17:42.932Z,18.25
2023-04-29T20:20:10.840Z,20.25
2023-04-29T20:22:39.255Z,21.25
2023-04-29T20:25:07.772Z,16.50
2023-04-29T20:27:36.362Z,12.00
2023-04-29T20:30:04.584Z,21.50
2023-04-29T20:32:32.464Z,13.50
2023-04-29T20:35:00.689Z,20.00
2023-04-29T20:37:28.670Z,14.00
2023-04-29T20:39:57.036Z,12.75
2023-04-29T20:42:24.791Z,15.00
2023-04-29T20:44:52.533Z,18.00
2023-04-29T20:47:20.942Z,19.00
2023-04-29T20:49:49.779Z,17.00
2023-04-29T20:52:19.027Z,24.00
2023-04-29T20:54:46.921Z,19.50
2023-04-29T20:57:14.709Z,20.25
2023-04-29T20:59:43.163Z,26.50
2023-04-29T21:02:11.587Z,27.75
2023-04-29T21:04:39.511Z,27.50
2023-04-29T21:07:07.869Z,26.00
2023-04-29T21:09:36.066Z,33.25
2023-04-29T21:12:06.197Z,25.40
2023-04-29T21:14:34.348Z,25.50
2023-04-29T21:17:02.531Z,18.75
2023-04-29T21:19:30.306Z,18.00
2023-04-29T21:21:58.207Z,21.75
2023-04-29T21:24:27.568Z,17.50
2023-04-29T21:26:55.295Z,12.75
2023-04-29T21:29:23.197Z,11.25
2023-04-29T21:31:51.242Z,18.00
2023-04-29T21:34:19.094Z,18.00
2023-04-29T21:36:47.702Z,17.50
2023-04-29T21:39:15.644Z,10.00
2023-04-29T21:41:43.827Z,15.25
2023-04-29T21:44:11.690Z,18.00
2023-04-29T21:46:39.569Z,12.25
2023-04-29T21:49:08.211Z,18.00
2023-04-29T21:51:36.077Z,20.00
2023-04-29T21:54:08.578Z,17.80
2023-04-29T21:56:36.421Z,21.75
2023-04-29T21:59:04.544Z,17.50
2023-04-29T22:01:48.958Z,17.00
2023-04-29T22:04:17.396Z,16.50
2023-04-29T22:06:45.255Z,12.50
2023-04-29T22:09:13.179Z,13.00
2023-04-29T22:11:41.044Z,14.50
2023-04-29T22:14:09.330Z,10.00
2023-04-29T22:16:37.337Z,8.50
2023-04-29T22:19:06.049Z,14.50
2023-04-29T22:21:33.747Z,12.75
2023-04-29T22:24:01.491Z,11.00
2023-04-29T22:26:29.611Z,10.00
2023-04-29T22:28:57.295Z,15.20
2023-04-29T22:31:25.165Z,4.00
2023-04-29T22:33:52.864Z,12.00
2023-04-29T22:36:20.632Z,9.50
2023-04-29T22:38:48.700Z,8.00
2023-04-29T22:41:19.937Z,9.00
2023-04-29T22:43:51.070Z,9.75
2023-04-29T22:46:18.812Z,5.00
2023-04-29T22:48:46.688Z,6.25
2023-04-29T22:51:14.686Z,8.00
2023-04-29T22:53:42.641Z,5.00
2023-04-29T22:56:10.262Z,7.50
2023-04-29T22:58:38.142Z,6.25
2023-04-29T23:01:06.039Z,9.00
2023-04-29T23:03:34.345Z,6.50
2023-04-29T23:06:02.714Z,4.00
2023-04-29T23:08:30.595Z,6.00
2023-04-29T23:10:58.294Z,4.40
2023-04-29T23:13:26.069Z,5.00
2023-04-29T23:15:54.088Z,6.50
2023-04-29T23:18:21.983Z,6.40
2023-04-29T23:20:49.803Z,6.00
2023-04-29T23:23:17.425Z,9.40
2023-04-29T23:25:45.425Z,4.50
2023-04-29T23:28:13.183Z,4.80
2023-04-29T23:30:41.268Z,6.25
2023-04-29T23:33:09.193Z,4.00
2023-04-29T23:35:36.889Z,9.60
2023-04-29T23:38:04.725Z,6.00
2023-04-29T23:40:32.656Z,7.00
2023-04-29T23:43:00.294Z,7.00
2023-04-29T23:45:27.945Z,7.40
2023-04-29T23:47:56.025Z,2.60
2023-04-29T23:50:23.777Z,4.00
2023-04-29T23:52:51.752Z,8.60
2023-04-29T23:55:20.682Z,7.00
2023-04-29T23:57:48.331Z,6.40
